CST,Max TemperatureF,Mean TemperatureF,Min TemperatureF,Max Dew PointF,MeanDew PointF,Min DewpointF,Max Humidity, Mean Humidity, Min Humidity, Max Sea Level PressureIn, Mean Sea Level PressureIn, Min Sea Level PressureIn, Max VisibilityMiles, Mean VisibilityMiles, Min VisibilityMiles, Max Wind SpeedMPH, Mean Wind SpeedMPH, Max Gust SpeedMPH,PrecipitationIn, CloudCover, Events, WindDirDegrees
2012-11-1,75,60,48,62,51,38,97,68,31,30.09,30.02,29.97,10,10,10,10,5,,0.00,2,,309
2012-11-2,79,62,46,67,59,47,100,88,62,30.09,30.04,30.00,10,10,6,16,3,,0.00,1,Rain,240
2012-11-3,82,70,59,68,64,59,100,91,58,30.14,30.08,30.05,10,7,0,12,3,,0.00,1,Fog,255
2012-11-4,82,68,55,67,60,55,100,91,50,30.11,30.07,30.00,10,5,0,10,2,17,0.00,4,Fog-Rain,310
2012-11-5,70,60,50,58,49,40,96,64,33,30.08,30.00,29.88,10,10,10,13,4,,0.00,4,Rain,115
2012-11-6,64,56,48,56,49,45,100,84,52,30.03,29.97,29.90,10,9,4,13,7,18,0.13,3,Rain,338
2012-11-7,66,54,42,48,43,37,100,69,39,30.13,30.04,29.95,10,10,9,13,5,18,0.00,2,Rain,326
2012-11-8,62,50,39,47,41,37,100,75,44,30.25,30.19,30.13,10,10,7,8,5,,0.00,0,Rain,350
2012-11-9,68,54,39,53,45,38,100,79,43,30.30,30.25,30.21,10,10,6,10,4,,0.00,1,,65
2012-11-10,70,56,43,61,54,43,100,78,59,30.32,30.26,30.23,10,10,6,16,7,24,0.00,2,,88
2012-11-11,73,70,66,64,62,54,90,76,63,30.27,30.23,30.19,10,10,10,21,15,28,0.00,6,Rain,121
2012-11-12,73,62,50,68,59,46,100,87,75,30.29,30.22,30.14,10,10,3,21,12,28,0.04,6,Rain,2
2012-11-13,63,53,43,44,35,31,83,57,30,30.33,30.27,30.22,10,10,10,17,12,25,0.00,3,,2
2012-11-14,64,52,39,54,45,33,100,78,56,30.27,30.23,30.19,10,10,8,9,6,,0.00,4,,5
2012-11-15,64,54,45,54,48,44,100,80,54,30.26,30.22,30.17,10,10,7,12,6,,0.00,6,,17
2012-11-16,54,48,42,47,45,42,100,92,77,30.29,30.25,30.21,10,9,2,13,5,,0.00,4,Rain,4
2012-11-17,64,50,37,46,42,37,100,74,46,30.33,30.28,30.24,10,8,2,14,5,,0.00,0,Rain,17
2012-11-18,69,56,43,48,43,38,82,67,42,30.32,30.27,30.22,10,10,10,13,6,,0.00,1,,13
2012-11-19,68,57,45,55,48,42,100,79,58,30.27,30.22,30.16,10,10,9,9,5,,0.00,2,,54
2012-11-20,71,56,42,52,48,42,100,81,49,30.20,30.15,30.09,10,9,2,9,3,,0.00,3,Fog-Rain,340
2012-11-21,73,58,42,55,48,43,100,83,42,30.20,30.15,30.10,10,8,2,9,2,,0.00,1,Fog,329
2012-11-22,73,58,42,56,49,43,100,86,42,30.25,30.19,30.16,10,6,0,8,2,,0.00,0,Fog-Rain,327
2012-11-23,73,58,44,56,48,44,100,87,37,30.27,30.20,30.13,10,5,1,13,2,18,0.00,1,Fog-Rain,303
2012-11-24,61,51,37,54,36,31,89,58,32,30.26,30.19,30.15,10,10,10,14,8,20,0.00,1,,345
2012-11-25,59,44,30,43,36,27,97,76,42,30.25,30.18,30.14,10,10,9,8,3,,0.00,0,Rain-Snow,72
2012-11-26,69,53,37,63,54,38,100,88,73,30.20,30.16,30.13,10,10,10,12,4,,0.00,4,,87
2012-11-27,66,60,53,66,61,51,100,96,87,30.27,30.16,30.09,10,8,1,22,7,30,0.44,8,Rain,341
2012-11-28,63,52,41,50,43,38,96,74,40,30.39,30.33,30.26,10,10,9,12,8,,0.00,4,,1
2012-11-29,63,52,42,50,46,39,100,84,60,30.38,30.32,30.28,10,8,2,12,6,,0.00,3,,37
2012-11-30,66,57,48,61,55,47,94,88,75,30.30,30.25,30.21,10,10,10,10,5,,0.00,5,Rain,56